Terminal Aerodrome Forecast
Issued by NWS

Home | Current Version | Previous Version | Text Only | Print | Product List | Glossary On
Versions: 1 2 3 4 5 6 7 8 9 10 11 12 13 14 15 16 17
000
FTUS41 KBOX 280528
TAFFMH
TAF
KFMH 280528Z 2806/0106 23005KT P6SM FEW080
     FM010200 17008KT 5SM BR OVC070
     FM010500 18009KT 6SM BR VCSH OVC035=

USA.gov is the U.S. government's official web portal to all federal, state and local government web resources and services.